createdAt,value
2019-02-10T00:04:03.137Z,74.18
2019-02-10T00:08:07.468Z,73.81
2019-02-10T00:12:12.110Z,73.90
2019-02-10T00:16:21.545Z,74.09
2019-02-10T00:20:25.743Z,74.52
2019-02-10T00:24:29.922Z,74.91
2019-02-10T00:28:34.131Z,74.66
2019-02-10T00:32:38.295Z,74.63
2019-02-10T00:36:43.347Z,74.74
2019-02-10T00:40:47.634Z,74.70
2019-02-10T00:44:52.476Z,74.45
2019-02-10T00:48:57.063Z,74.47
2019-02-10T00:53:01.270Z,74.39
2019-02-10T00:57:06.105Z,74.28
2019-02-10T01:01:10.340Z,74.41
2019-02-10T01:05:14.549Z,74.49
2019-02-10T01:09:19.575Z,74.60
2019-02-10T01:13:23.776Z,74.53
2019-02-10T01:17:28.005Z,74.59
2019-02-10T01:21:32.585Z,74.70
2019-02-10T01:25:36.904Z,74.79
2019-02-10T01:29:41.102Z,74.79
2019-02-10T01:33:45.677Z,74.73
2019-02-10T01:37:49.904Z,74.75
2019-02-10T01:41:54.084Z,74.57
2019-02-10T01:46:00.338Z,74.33
2019-02-10T01:50:06.475Z,74.40
2019-02-10T01:54:11.578Z,74.22
2019-02-10T01:58:15.788Z,74.20
2019-02-10T02:02:20.021Z,74.44
2019-02-10T02:06:24.256Z,74.38
2019-02-10T02:10:28.498Z,74.51
2019-02-10T02:14:32.679Z,74.49
2019-02-10T02:18:36.957Z,74.32
2019-02-10T02:22:41.178Z,74.25
2019-02-10T02:26:45.371Z,74.42
2019-02-10T02:30:49.923Z,74.54
2019-02-10T02:34:54.140Z,74.41
2019-02-10T02:38:58.320Z,74.44
2019-02-10T02:43:02.777Z,74.54
2019-02-10T02:47:06.991Z,74.51
2019-02-10T02:51:11.219Z,74.36
2019-02-10T02:55:15.470Z,74.42
2019-02-10T02:59:20.012Z,74.50
2019-02-10T03:03:24.226Z,74.73
2019-02-10T03:07:28.432Z,74.77
2019-02-10T03:11:32.650Z,74.88
2019-02-10T03:15:36.851Z,74.92
2019-02-10T03:19:41.073Z,74.93
2019-02-10T03:23:45.652Z,74.76
2019-02-10T03:27:49.829Z,74.97
2019-02-10T03:31:54.035Z,74.95
2019-02-10T03:35:58.233Z,75.06
2019-02-10T03:40:02.446Z,75.08
2019-02-10T03:44:06.695Z,74.87
2019-02-10T03:48:10.887Z,74.74
2019-02-10T03:52:15.071Z,74.86
2019-02-10T03:56:19.660Z,74.87
2019-02-10T04:00:23.859Z,74.87
2019-02-10T04:04:28.077Z,74.93
2019-02-10T04:08:32.253Z,74.95
2019-02-10T04:12:36.468Z,75.05
2019-02-10T04:16:40.685Z,75.25
2019-02-10T04:20:44.863Z,75.54
2019-02-10T04:24:49.078Z,75.69
2019-02-10T04:28:53.299Z,75.71
2019-02-10T04:32:57.453Z,76.00
2019-02-10T04:37:01.663Z,76.15
2019-02-10T04:41:05.888Z,76.32
2019-02-10T04:45:10.372Z,77.23
2019-02-10T04:49:14.568Z,77.21
2019-02-10T04:53:18.804Z,76.90
2019-02-10T04:57:23.009Z,76.91
2019-02-10T05:01:27.206Z,77.05
2019-02-10T05:05:31.418Z,76.94
2019-02-10T05:09:35.608Z,77.07
2019-02-10T05:13:39.819Z,77.16
2019-02-10T05:17:43.984Z,77.07
2019-02-10T05:21:48.236Z,76.90
2019-02-10T05:25:52.411Z,77.08
2019-02-10T05:29:56.620Z,77.23
2019-02-10T05:34:00.915Z,77.20
2019-02-10T05:38:05.205Z,77.33
2019-02-10T05:42:09.433Z,77.50
2019-02-10T05:46:13.697Z,77.63
2019-02-10T05:50:17.907Z,77.82
2019-02-10T05:54:22.095Z,77.65
2019-02-10T05:58:26.638Z,77.59
2019-02-10T06:02:34.321Z,77.63
2019-02-10T06:06:38.596Z,77.73
2019-02-10T06:10:42.744Z,77.91
2019-02-10T06:14:46.972Z,77.96
2019-02-10T06:18:51.139Z,77.81
2019-02-10T06:22:56.268Z,77.84
2019-02-10T06:27:00.570Z,78.09
2019-02-10T06:31:04.767Z,77.89
2019-02-10T06:35:10.110Z,78.21
2019-02-10T06:39:14.311Z,78.17
2019-02-10T06:43:18.518Z,78.01
2019-02-10T06:47:22.725Z,78.13
2019-02-10T06:51:26.899Z,78.10
2019-02-10T06:55:31.883Z,78.14
2019-02-10T06:59:44.896Z,78.14
2019-02-10T07:04:04.080Z,78.15
2019-02-10T07:08:08.556Z,78.19
2019-02-10T07:12:46.564Z,78.09
2019-02-10T07:17:28.905Z,78.22
2019-02-10T07:21:36.940Z,78.13
2019-02-10T07:25:49.586Z,78.13
2019-02-10T07:30:28.882Z,78.08
2019-02-10T07:35:08.333Z,78.16
2019-02-10T07:39:29.836Z,78.17
2019-02-10T07:43:50.829Z,78.39
2019-02-10T07:48:22.943Z,78.52
2019-02-10T07:52:50.565Z,78.59
2019-02-10T07:57:44.803Z,78.58
2019-02-10T08:02:36.325Z,78.75
2019-02-10T08:07:17.431Z,79.21
2019-02-10T08:12:05.545Z,79.13
2019-02-10T08:16:54.360Z,79.18
2019-02-10T08:21:49.531Z,78.90
2019-02-10T08:26:24.865Z,78.94
2019-02-10T08:30:42.280Z,79.19
2019-02-10T08:35:34.660Z,79.16
2019-02-10T08:40:10.799Z,79.29
2019-02-10T08:44:41.343Z,79.35
2019-02-10T08:49:23.458Z,79.62
2019-02-10T08:53:31.718Z,79.62
2019-02-10T08:57:35.884Z,80.05
2019-02-10T09:01:40.128Z,79.87
2019-02-10T09:05:44.330Z,80.10
2019-02-10T09:09:48.509Z,80.15
2019-02-10T09:13:52.741Z,80.27
2019-02-10T09:17:56.950Z,80.40
2019-02-10T09:22:01.160Z,80.40
2019-02-10T09:26:05.651Z,80.57
2019-02-10T09:30:11.327Z,80.80
2019-02-10T09:34:17.006Z,80.96
2019-02-10T09:38:21.285Z,80.77
2019-02-10T09:42:25.463Z,80.94
2019-02-10T09:46:29.951Z,81.18
2019-02-10T09:50:34.172Z,81.26
2019-02-10T09:54:38.407Z,81.31
2019-02-10T09:58:42.652Z,81.32
2019-02-10T10:02:46.810Z,81.42
2019-02-10T10:06:51.006Z,81.68
2019-02-10T10:10:56.555Z,81.70
2019-02-10T10:15:02.171Z,81.66
2019-02-10T10:19:06.813Z,81.45
2019-02-10T10:23:11.027Z,81.80
2019-02-10T10:27:15.239Z,81.72
2019-02-10T10:31:19.478Z,81.55
2019-02-10T10:35:23.714Z,81.52
2019-02-10T10:39:27.929Z,81.62
2019-02-10T10:43:32.175Z,81.42
2019-02-10T10:47:36.346Z,81.13
2019-02-10T10:51:40.590Z,81.02
2019-02-10T10:55:44.784Z,80.97
2019-02-10T10:59:49.008Z,80.97
2019-02-10T11:03:53.300Z,80.99
2019-02-10T11:07:57.521Z,80.88
2019-02-10T11:12:01.731Z,81.09
2019-02-10T11:16:06.034Z,80.99
2019-02-10T11:20:10.902Z,80.88
2019-02-10T11:24:15.161Z,80.82
2019-02-10T11:28:20.059Z,80.85
2019-02-10T11:32:24.386Z,80.48
2019-02-10T11:36:28.540Z,80.68
2019-02-10T11:40:33.111Z,80.80
2019-02-10T11:44:37.305Z,80.96
2019-02-10T11:48:41.526Z,80.87
2019-02-10T11:52:46.036Z,80.86
2019-02-10T11:56:50.196Z,80.69
2019-02-10T12:00:54.547Z,80.88
2019-02-10T12:04:58.709Z,80.91
2019-02-10T12:09:03.004Z,80.79
2019-02-10T12:13:07.573Z,80.87
2019-02-10T12:17:11.762Z,80.83
2019-02-10T12:21:16.265Z,80.73
2019-02-10T12:25:20.460Z,80.72
2019-02-10T12:29:24.650Z,80.56
2019-02-10T12:33:28.871Z,80.60
2019-02-10T12:37:33.091Z,80.47
2019-02-10T12:41:37.306Z,80.51
2019-02-10T12:45:41.527Z,80.60
2019-02-10T12:49:45.838Z,80.46
2019-02-10T12:53:50.327Z,80.39
2019-02-10T12:57:55.729Z,80.57
2019-02-10T13:02:01.479Z,80.54
2019-02-10T13:06:05.638Z,80.34
2019-02-10T13:10:13.104Z,80.45
2019-02-10T13:14:18.968Z,80.14
2019-02-10T13:18:23.308Z,79.74
2019-02-10T13:22:27.540Z,79.30
2019-02-10T13:26:31.695Z,78.28
2019-02-10T13:30:35.959Z,77.59
2019-02-10T13:34:51.033Z,77.29
2019-02-10T13:38:55.430Z,76.87
2019-02-10T13:43:01.058Z,76.60
2019-02-10T13:47:08.487Z,76.03
2019-02-10T13:51:13.160Z,75.95
2019-02-10T13:55:17.751Z,75.95
2019-02-10T13:59:22.070Z,75.85
2019-02-10T14:03:26.341Z,75.64
2019-02-10T14:07:31.659Z,75.66
2019-02-10T14:11:35.856Z,75.60
2019-02-10T14:15:40.759Z,75.44
2019-02-10T14:19:44.967Z,75.43
2019-02-10T14:23:49.273Z,75.15
2019-02-10T14:27:53.760Z,75.06
2019-02-10T14:31:59.016Z,74.82
2019-02-10T14:36:03.235Z,75.06
2019-02-10T14:40:07.465Z,74.95
2019-02-10T14:44:12.197Z,74.95
2019-02-10T14:48:17.143Z,74.77
2019-02-10T14:52:21.364Z,74.61
2019-02-10T14:56:25.558Z,74.58
2019-02-10T15:00:30.947Z,74.54
2019-02-10T15:04:37.019Z,74.54
2019-02-10T15:08:41.228Z,74.50
2019-02-10T15:12:47.464Z,74.53
2019-02-10T15:16:53.989Z,74.48
2019-02-10T15:20:58.202Z,74.47
2019-02-10T15:25:02.461Z,74.49
2019-02-10T15:29:06.681Z,74.51
2019-02-10T15:33:10.880Z,74.46
2019-02-10T15:37:15.106Z,74.53
2019-02-10T15:41:19.333Z,74.61
2019-02-10T15:45:23.571Z,74.56
2019-02-10T15:49:28.865Z,74.55
2019-02-10T15:53:33.078Z,74.64
2019-02-10T15:57:37.287Z,74.61
2019-02-10T16:01:41.513Z,74.56
2019-02-10T16:05:45.789Z,74.59
2019-02-10T16:09:49.955Z,74.40
2019-02-10T16:13:54.174Z,74.36
2019-02-10T16:17:58.474Z,74.68
2019-02-10T16:22:02.681Z,74.52
2019-02-10T16:26:06.871Z,74.64
2019-02-10T16:30:12.402Z,74.82
2019-02-10T16:34:16.623Z,74.96
2019-02-10T16:38:20.893Z,75.14
2019-02-10T16:42:25.122Z,75.67
2019-02-10T16:46:29.395Z,75.14
2019-02-10T16:50:33.737Z,75.50
2019-02-10T16:54:37.954Z,75.90
2019-02-10T16:58:42.168Z,76.18
2019-02-10T17:02:46.415Z,76.26
2019-02-10T17:06:51.010Z,76.26
2019-02-10T17:10:55.346Z,76.01
2019-02-10T17:14:59.768Z,76.29
2019-02-10T17:19:03.971Z,76.07
2019-02-10T17:23:08.164Z,76.60
2019-02-10T17:27:12.346Z,76.86
2019-02-10T17:31:16.546Z,76.91
2019-02-10T17:35:20.755Z,77.14
2019-02-10T17:39:25.488Z,77.23
2019-02-10T17:43:29.707Z,77.17
2019-02-10T17:47:33.871Z,76.95
2019-02-10T17:51:38.116Z,76.89
2019-02-10T17:55:42.368Z,76.91
2019-02-10T17:59:46.572Z,76.80
2019-02-10T18:03:50.817Z,76.56
2019-02-10T18:07:54.979Z,76.28
2019-02-10T18:11:59.220Z,76.37
2019-02-10T18:16:31.848Z,76.48
2019-02-10T18:20:53.616Z,76.76
2019-02-10T18:25:26.045Z,76.60
2019-02-10T18:29:48.527Z,75.97
2019-02-10T18:34:07.233Z,75.79
2019-02-10T18:38:32.977Z,75.35
2019-02-10T18:42:47.167Z,75.40
2019-02-10T18:47:22.366Z,75.65
2019-02-10T18:51:32.081Z,76.22
2019-02-10T18:55:50.040Z,76.40
2019-02-10T19:00:11.860Z,76.82
2019-02-10T19:04:34.286Z,76.89
2019-02-10T19:08:50.345Z,77.04
2019-02-10T19:13:04.705Z,77.15
2019-02-10T19:17:27.838Z,77.24
2019-02-10T19:21:40.628Z,77.45
2019-02-10T19:26:12.658Z,77.43
2019-02-10T19:30:27.557Z,77.53
2019-02-10T19:34:54.698Z,78.09
2019-02-10T19:39:10.555Z,78.31
2019-02-10T19:43:32.696Z,78.33
2019-02-10T19:47:55.847Z,78.20
2019-02-10T19:52:24.847Z,78.14
2019-02-10T19:56:39.590Z,78.15
2019-02-10T20:01:09.046Z,78.35
2019-02-10T20:05:25.630Z,78.51
2019-02-10T20:09:47.520Z,78.31
2019-02-10T20:13:59.732Z,78.20
2019-02-10T20:18:25.921Z,78.86
2019-02-10T20:28:07.617Z,77.71
2019-02-10T20:32:18.376Z,77.23
2019-02-10T20:36:38.382Z,77.50
2019-02-10T20:41:09.029Z,77.43
2019-02-10T20:45:33.449Z,77.53
2019-02-10T20:49:56.703Z,77.30
2019-02-10T20:54:33.091Z,77.17
2019-02-10T20:59:02.428Z,77.13
2019-02-10T21:03:27.825Z,76.87
2019-02-10T21:07:49.648Z,76.93
2019-02-10T21:12:08.828Z,76.83
2019-02-10T21:16:35.025Z,76.87
2019-02-10T21:20:54.766Z,76.46
2019-02-10T21:25:15.139Z,76.51
2019-02-10T21:29:53.547Z,76.56
2019-02-10T21:34:03.723Z,76.77
2019-02-10T21:38:30.287Z,76.94
2019-02-10T21:42:42.706Z,77.38
2019-02-10T21:47:15.203Z,77.34
2019-02-10T21:51:19.535Z,77.30
2019-02-10T21:55:23.766Z,77.47
2019-02-10T21:59:28.705Z,77.66
2019-02-10T22:03:33.167Z,78.17
2019-02-10T22:07:37.507Z,78.49
2019-02-10T22:11:41.857Z,78.58
2019-02-10T22:15:46.108Z,78.76
2019-02-10T22:19:50.368Z,78.23
2019-02-10T22:23:54.590Z,78.15
2019-02-10T22:27:58.852Z,77.91
2019-02-10T22:32:03.385Z,78.17
2019-02-10T22:36:07.690Z,78.17
2019-02-10T22:40:12.279Z,78.41
2019-02-10T22:44:16.564Z,78.56
2019-02-10T22:48:20.789Z,78.55
2019-02-10T22:52:24.977Z,78.67
2019-02-10T22:56:29.233Z,78.86
2019-02-10T23:00:53.378Z,79.00
2019-02-10T23:04:58.736Z,78.92
2019-02-10T23:09:05.003Z,78.81
2019-02-10T23:13:09.244Z,78.70
2019-02-10T23:17:13.803Z,78.35
2019-02-10T23:21:18.387Z,78.15
2019-02-10T23:25:22.558Z,77.98
2019-02-10T23:29:26.763Z,77.65
2019-02-10T23:33:30.975Z,77.33
2019-02-10T23:37:36.085Z,76.98
2019-02-10T23:41:40.325Z,76.78
2019-02-10T23:45:44.547Z,76.65
2019-02-10T23:49:48.748Z,76.41
2019-02-10T23:53:52.993Z,75.78
2019-02-10T23:57:57.214Z,75.04
